Terminal Aerodrome Forecast
Issued by NWS

Home | Current Version | Previous Version | Text Only | Print | Product List | Glossary On
Versions: 1 2 3 4 5 6 7 8 9 10 11 12 13 14 15 16 17
000
FTUS43 KLSX 210537
TAFUIN
TAF
KUIN 210537Z 2106/2206 VRB04KT 5SM -RA BR OVC040
      TEMPO 2106/2107 3SM SHRA BR
     FM210800 VRB04KT 5SM BR OVC035
     FM211200 VRB04KT 4SM BR BKN025
     FM211600 VRB05KT P6SM BKN035
     FM212100 VRB05KT P6SM SKC=

USA.gov is the U.S. government's official web portal to all federal, state and local government web resources and services.